createdAt,value
2023-03-01T00:01:47.297Z,11.77
2023-03-01T00:04:13.760Z,11.18
2023-03-01T00:06:40.422Z,11.38
2023-03-01T00:09:07.706Z,10.80
2023-03-01T00:11:34.551Z,11.70
2023-03-01T00:14:02.578Z,12.07
2023-03-01T00:16:39.781Z,10.80
2023-03-01T00:19:08.222Z,11.40
2023-03-01T00:21:36.134Z,11.38
2023-03-01T00:24:03.656Z,11.20
2023-03-01T00:26:30.657Z,12.00
2023-03-01T00:28:58.983Z,11.20
2023-03-01T00:31:28.271Z,11.35
2023-03-01T00:33:59.545Z,11.73
2023-03-01T00:36:31.289Z,11.77
2023-03-01T00:38:57.974Z,11.63
2023-03-01T00:41:25.106Z,11.00
2023-03-01T00:43:51.542Z,11.90
2023-03-01T00:46:20.490Z,11.73
2023-03-01T00:48:47.305Z,11.45
2023-03-01T00:51:18.016Z,11.02
2023-03-01T00:53:44.953Z,11.82
2023-03-01T00:56:13.100Z,12.63
2023-03-01T00:58:39.517Z,11.18
2023-03-01T01:01:20.381Z,10.90
2023-03-01T01:03:52.831Z,12.07
2023-03-01T01:06:31.108Z,12.70
2023-03-01T01:08:58.528Z,11.38
2023-03-01T01:11:28.025Z,12.52
2023-03-01T01:13:54.863Z,12.73
2023-03-01T01:16:23.580Z,12.25
2023-03-01T01:18:50.074Z,11.73
2023-03-01T01:21:19.288Z,12.82
2023-03-01T01:23:46.860Z,11.60
2023-03-01T01:26:15.726Z,12.40
2023-03-01T01:28:42.470Z,11.85
2023-03-01T01:31:09.009Z,12.02
2023-03-01T01:33:35.659Z,12.35
2023-03-01T01:36:02.049Z,12.55
2023-03-01T01:38:28.467Z,12.05
2023-03-01T01:40:54.909Z,11.95
2023-03-01T01:43:30.034Z,12.18
2023-03-01T01:46:01.131Z,11.98
2023-03-01T01:48:41.420Z,11.90
2023-03-01T01:51:11.745Z,12.70
2023-03-01T01:53:39.279Z,12.60
2023-03-01T01:56:08.721Z,13.07
2023-03-01T01:58:35.198Z,12.25
2023-03-01T02:01:02.741Z,12.90
2023-03-01T02:03:34.282Z,13.55
2023-03-01T02:06:30.576Z,12.88
2023-03-01T02:09:03.791Z,11.98
2023-03-01T02:11:33.646Z,12.30
2023-03-01T02:14:00.771Z,12.18
2023-03-01T02:16:27.923Z,12.30
2023-03-01T02:18:54.757Z,12.73
2023-03-01T02:21:49.600Z,11.80
2023-03-01T02:24:15.844Z,13.10
2023-03-01T02:26:46.554Z,13.27
2023-03-01T02:29:13.054Z,12.68
2023-03-01T02:31:42.529Z,12.02
2023-03-01T02:34:11.984Z,13.10
2023-03-01T02:36:42.163Z,11.95
2023-03-01T02:39:15.305Z,12.48
2023-03-01T02:41:46.115Z,13.07
2023-03-01T02:44:12.495Z,12.95
2023-03-01T02:46:47.922Z,13.15
2023-03-01T02:49:26.495Z,13.27
2023-03-01T02:52:01.733Z,12.90
2023-03-01T02:54:32.434Z,12.93
2023-03-01T02:56:58.896Z,13.63
2023-03-01T02:59:32.280Z,12.88
2023-03-01T03:01:58.646Z,13.75
2023-03-01T03:04:25.173Z,13.80
2023-03-01T03:06:52.142Z,12.90
2023-03-01T03:09:19.259Z,12.98
2023-03-01T03:11:45.781Z,13.60
2023-03-01T03:14:14.198Z,13.93
2023-03-01T03:16:46.109Z,13.65
2023-03-01T03:19:12.761Z,14.20
2023-03-01T03:21:39.175Z,13.15
2023-03-01T03:24:06.169Z,13.85
2023-03-01T03:26:33.531Z,13.80
2023-03-01T03:29:00.039Z,13.77
2023-03-01T03:31:26.593Z,13.48
2023-03-01T03:33:53.076Z,12.88
2023-03-01T03:36:21.953Z,13.60
2023-03-01T03:38:48.403Z,13.45
2023-03-01T03:41:14.766Z,13.73
2023-03-01T03:43:43.500Z,14.63
2023-03-01T03:46:11.480Z,14.57
2023-03-01T03:48:44.041Z,14.55
2023-03-01T03:51:15.670Z,14.65
2023-03-01T03:53:42.419Z,13.82
2023-03-01T03:56:09.192Z,14.05
2023-03-01T03:58:35.759Z,14.57
2023-03-01T04:01:02.225Z,14.85
2023-03-01T04:03:29.990Z,14.75
2023-03-01T04:05:58.786Z,15.50
2023-03-01T04:08:25.361Z,14.77
2023-03-01T04:10:53.715Z,15.18
2023-03-01T04:13:22.370Z,15.90
2023-03-01T04:15:55.315Z,15.25
2023-03-01T04:18:23.596Z,14.33
2023-03-01T04:20:52.848Z,15.30
2023-03-01T04:23:21.443Z,14.98
2023-03-01T04:25:54.654Z,14.18
2023-03-01T04:28:36.738Z,14.55
2023-03-01T04:31:14.284Z,14.02
2023-03-01T04:33:42.522Z,14.25
2023-03-01T04:36:09.669Z,15.13
2023-03-01T04:38:38.152Z,14.98
2023-03-01T04:41:06.540Z,14.90
2023-03-01T04:43:34.934Z,14.45
2023-03-01T04:46:10.514Z,15.65
2023-03-01T04:48:37.827Z,14.55
2023-03-01T04:51:05.004Z,14.93
2023-03-01T04:53:31.522Z,15.63
2023-03-01T04:55:57.888Z,16.27
2023-03-01T04:58:25.691Z,15.18
2023-03-01T05:00:52.473Z,15.43
2023-03-01T05:03:19.104Z,15.55
2023-03-01T05:05:47.835Z,14.73
2023-03-01T05:08:18.313Z,14.88
2023-03-01T05:10:47.169Z,15.35
2023-03-01T05:13:16.111Z,15.93
2023-03-01T05:15:43.202Z,14.95
2023-03-01T05:18:12.225Z,14.02
2023-03-01T05:20:39.378Z,13.70
2023-03-01T05:23:08.803Z,13.88
2023-03-01T05:25:35.638Z,15.02
2023-03-01T05:28:05.818Z,15.57
2023-03-01T05:30:33.722Z,14.93
2023-03-01T05:33:00.514Z,15.48
2023-03-01T05:35:27.228Z,15.25
2023-03-01T05:37:54.302Z,14.40
2023-03-01T05:40:23.262Z,15.52
2023-03-01T05:42:54.933Z,14.57
2023-03-01T05:45:22.016Z,14.10
2023-03-01T05:47:49.741Z,13.98
2023-03-01T05:50:21.889Z,20.67
2023-03-01T05:52:49.877Z,26.35
2023-03-01T05:55:17.770Z,23.67
2023-03-01T05:57:44.157Z,24.05
2023-03-01T06:00:11.855Z,15.88
2023-03-01T06:02:38.777Z,13.48
2023-03-01T06:05:07.526Z,12.70
2023-03-01T06:07:34.249Z,13.95
2023-03-01T06:10:00.596Z,13.02
2023-03-01T06:12:26.958Z,13.85
2023-03-01T06:14:53.329Z,14.23
2023-03-01T06:17:21.029Z,13.98
2023-03-01T06:19:47.920Z,13.15
2023-03-01T06:22:14.332Z,14.75
2023-03-01T06:24:40.720Z,14.60
2023-03-01T06:27:07.100Z,14.20
2023-03-01T06:29:33.458Z,14.27
2023-03-01T06:31:59.845Z,14.75
2023-03-01T06:34:26.202Z,13.57
2023-03-01T06:36:52.539Z,13.75
2023-03-01T06:39:19.133Z,13.07
2023-03-01T06:41:45.790Z,13.65
2023-03-01T06:44:12.155Z,12.77
2023-03-01T06:46:39.964Z,14.00
2023-03-01T06:49:10.111Z,14.15
2023-03-01T06:51:39.434Z,13.27
2023-03-01T06:54:05.908Z,13.88
2023-03-01T06:56:33.417Z,14.05
2023-03-01T06:59:03.046Z,13.18
2023-03-01T07:01:30.377Z,11.80
2023-03-01T07:03:56.845Z,12.00
2023-03-01T07:06:23.471Z,13.95
2023-03-01T07:08:49.988Z,13.98
2023-03-01T07:11:16.851Z,12.73
2023-03-01T07:13:43.402Z,12.77
2023-03-01T07:16:09.824Z,13.70
2023-03-01T07:18:36.207Z,14.05
2023-03-01T07:21:10.274Z,19.10
2023-03-01T07:23:36.698Z,15.95
2023-03-01T07:26:03.341Z,16.55
2023-03-01T07:28:29.906Z,13.82
2023-03-01T07:30:56.275Z,13.30
2023-03-01T07:33:22.761Z,12.35
2023-03-01T07:35:49.223Z,13.77
2023-03-01T07:38:15.768Z,13.45
2023-03-01T07:40:42.151Z,13.88
2023-03-01T07:43:08.532Z,11.80
2023-03-01T07:45:34.865Z,12.77
2023-03-01T07:48:01.258Z,12.85
2023-03-01T07:50:27.692Z,12.82
2023-03-01T07:52:54.068Z,12.60
2023-03-01T07:55:20.943Z,13.35
2023-03-01T07:57:47.291Z,13.45
2023-03-01T08:00:14.256Z,11.88
2023-03-01T08:02:42.796Z,13.18
2023-03-01T08:05:10.949Z,13.68
2023-03-01T08:07:37.332Z,13.50
2023-03-01T08:10:04.042Z,14.23
2023-03-01T08:12:30.448Z,13.82
2023-03-01T08:14:57.914Z,13.55
2023-03-01T08:17:24.290Z,13.82
2023-03-01T08:19:50.740Z,13.93
2023-03-01T08:22:17.184Z,13.20
2023-03-01T08:24:43.705Z,14.00
2023-03-01T08:27:10.164Z,13.32
2023-03-01T08:29:36.584Z,13.60
2023-03-01T08:32:03.162Z,13.88
2023-03-01T08:34:29.618Z,14.60
2023-03-01T08:36:56.147Z,13.82
2023-03-01T08:39:22.589Z,13.60
2023-03-01T08:41:49.053Z,14.55
2023-03-01T08:44:17.550Z,13.45
2023-03-01T08:46:44.234Z,14.52
2023-03-01T08:49:16.017Z,13.30
2023-03-01T08:51:42.778Z,13.88
2023-03-01T08:54:17.568Z,13.90
2023-03-01T08:56:43.964Z,13.90
2023-03-01T08:59:11.678Z,13.88
2023-03-01T09:01:38.048Z,13.35
2023-03-01T09:04:04.928Z,14.05
2023-03-01T09:06:33.955Z,12.90
2023-03-01T09:09:00.790Z,12.82
2023-03-01T09:11:27.233Z,12.73
2023-03-01T09:13:53.620Z,14.35
2023-03-01T09:16:21.681Z,14.25
2023-03-01T09:18:55.579Z,12.90
2023-03-01T09:21:38.620Z,13.00
2023-03-01T09:24:06.234Z,13.63
2023-03-01T09:26:32.960Z,14.00
2023-03-01T09:28:59.616Z,13.77
2023-03-01T09:31:26.116Z,12.77
2023-03-01T09:33:54.103Z,12.88
2023-03-01T09:36:22.759Z,13.13
2023-03-01T09:38:49.849Z,13.25
2023-03-01T09:41:32.359Z,13.10
2023-03-01T09:44:05.610Z,13.73
2023-03-01T09:46:39.179Z,13.73
2023-03-01T09:49:11.943Z,13.02
2023-03-01T09:51:38.436Z,14.35
2023-03-01T09:54:06.270Z,13.95
2023-03-01T09:56:38.504Z,14.60
2023-03-01T09:59:18.497Z,14.30
2023-03-01T10:01:50.696Z,14.40
2023-03-01T10:04:46.889Z,14.40
2023-03-01T10:08:01.304Z,14.07
2023-03-01T10:10:32.264Z,14.40
2023-03-01T10:12:59.126Z,13.40
2023-03-01T10:15:37.292Z,14.90
2023-03-01T10:18:26.343Z,13.93
2023-03-01T10:21:01.450Z,13.93
2023-03-01T10:23:31.536Z,14.05
2023-03-01T10:26:19.054Z,14.20
2023-03-01T10:28:58.189Z,13.90
2023-03-01T10:31:30.388Z,14.05
2023-03-01T10:33:59.137Z,14.80
2023-03-01T10:36:25.547Z,13.88
2023-03-01T10:38:57.775Z,14.27
2023-03-01T10:41:27.112Z,14.30
2023-03-01T10:43:58.642Z,13.68
2023-03-01T10:46:33.748Z,13.55
2023-03-01T10:49:26.546Z,14.35
2023-03-01T10:51:53.783Z,12.98
2023-03-01T10:54:28.675Z,13.88
2023-03-01T10:56:57.085Z,13.35
2023-03-01T10:59:29.527Z,13.38
2023-03-01T11:02:22.228Z,12.73
2023-03-01T11:05:02.435Z,12.95
2023-03-01T11:07:29.615Z,12.93
2023-03-01T11:09:56.153Z,13.23
2023-03-01T11:12:23.043Z,13.00
2023-03-01T11:14:51.804Z,13.55
2023-03-01T11:17:30.013Z,12.95
2023-03-01T11:20:15.222Z,12.73
2023-03-01T11:23:14.366Z,11.98
2023-03-01T11:25:43.493Z,12.68
2023-03-01T11:28:15.463Z,12.40
2023-03-01T11:31:08.634Z,12.13
2023-03-01T11:33:45.390Z,12.63
2023-03-01T11:36:30.510Z,12.18
2023-03-01T11:38:57.473Z,11.70
2023-03-01T11:41:31.797Z,11.93
2023-03-01T11:44:04.943Z,11.57
2023-03-01T11:47:02.481Z,11.25
2023-03-01T11:50:06.202Z,11.45
2023-03-01T11:52:42.348Z,10.70
2023-03-01T11:55:36.294Z,11.63
2023-03-01T11:58:28.692Z,10.90
2023-03-01T12:01:13.242Z,10.95
2023-03-01T12:03:58.194Z,10.50
2023-03-01T12:06:47.854Z,10.60
2023-03-01T12:09:23.492Z,11.52
2023-03-01T12:12:05.088Z,10.80
2023-03-01T12:14:38.231Z,10.63
2023-03-01T12:17:19.272Z,10.68
2023-03-01T12:20:15.889Z,10.80
2023-03-01T12:23:20.050Z,10.07
2023-03-01T12:25:57.390Z,9.85
2023-03-01T12:28:32.274Z,9.88
2023-03-01T12:31:37.549Z,10.70
2023-03-01T12:34:28.722Z,10.60
2023-03-01T12:37:16.469Z,10.18
2023-03-01T12:40:04.494Z,9.73
2023-03-01T12:42:50.377Z,10.98
2023-03-01T12:45:33.550Z,10.27
2023-03-01T12:48:18.373Z,10.68
2023-03-01T12:50:50.351Z,9.18
2023-03-01T12:53:24.493Z,9.95
2023-03-01T12:58:56.270Z,9.52
2023-03-01T13:01:42.893Z,10.30
2023-03-01T13:04:18.334Z,9.60
2023-03-01T13:06:50.590Z,10.55
2023-03-01T13:09:29.124Z,9.88
2023-03-01T13:11:55.543Z,9.52
2023-03-01T13:14:22.034Z,10.27
2023-03-01T13:16:50.318Z,9.52
2023-03-01T13:19:25.186Z,8.40
2023-03-01T13:21:55.101Z,9.00
2023-03-01T13:24:37.131Z,9.27
2023-03-01T13:27:09.456Z,9.13
2023-03-01T13:29:46.174Z,8.90
2023-03-01T13:32:48.436Z,8.52
2023-03-01T13:35:22.402Z,8.95
2023-03-01T13:37:49.070Z,9.25
2023-03-01T13:40:19.443Z,8.70
2023-03-01T13:43:04.091Z,8.98
2023-03-01T13:45:40.613Z,9.30
2023-03-01T13:48:21.448Z,7.97
2023-03-01T13:50:52.635Z,8.85
2023-03-01T13:53:22.195Z,8.93
2023-03-01T13:55:55.396Z,9.10
2023-03-01T13:58:26.679Z,8.68
2023-03-01T14:01:05.433Z,8.25
2023-03-01T14:03:33.898Z,8.27
2023-03-01T14:06:14.499Z,8.82
2023-03-01T14:08:42.741Z,7.90
2023-03-01T14:11:24.777Z,8.43
2023-03-01T14:13:58.326Z,9.18
2023-03-01T14:17:05.577Z,8.95
2023-03-01T14:19:34.127Z,8.48
2023-03-01T14:22:04.841Z,9.10
2023-03-01T14:24:33.775Z,9.05
2023-03-01T14:27:02.094Z,8.52
2023-03-01T14:29:36.701Z,9.32
2023-03-01T14:32:20.891Z,8.52
2023-03-01T14:34:49.740Z,8.43
2023-03-01T14:37:32.588Z,8.35
2023-03-01T14:40:01.579Z,8.63
2023-03-01T14:42:31.760Z,9.50
2023-03-01T14:44:59.160Z,8.98
2023-03-01T14:47:37.153Z,9.02
2023-03-01T14:50:06.536Z,8.65
2023-03-01T14:52:36.890Z,8.50
2023-03-01T14:55:06.508Z,8.98
2023-03-01T14:57:33.128Z,9.20
2023-03-01T15:00:03.966Z,8.27
2023-03-01T15:02:31.498Z,8.23
2023-03-01T15:05:01.754Z,8.98
2023-03-01T15:07:32.234Z,9.82
2023-03-01T15:09:59.718Z,9.45
2023-03-01T15:12:29.046Z,8.27
2023-03-01T15:15:03.933Z,8.77
2023-03-01T15:17:36.939Z,8.77
2023-03-01T15:20:06.246Z,8.40
2023-03-01T15:22:32.904Z,8.23
2023-03-01T15:24:59.530Z,8.32
2023-03-01T15:27:26.974Z,8.48
2023-03-01T15:29:55.872Z,8.20
2023-03-01T15:32:33.829Z,8.82
2023-03-01T15:35:39.088Z,8.95
2023-03-01T15:38:05.461Z,7.93
2023-03-01T15:40:34.468Z,9.02
2023-03-01T15:43:02.228Z,9.60
2023-03-01T15:45:30.319Z,8.55
2023-03-01T15:47:58.809Z,9.02
2023-03-01T15:50:28.735Z,8.48
2023-03-01T15:52:56.301Z,8.38
2023-03-01T15:55:30.920Z,8.82
2023-03-01T15:58:02.391Z,8.40
2023-03-01T16:00:29.795Z,9.23
2023-03-01T16:02:56.706Z,8.90
2023-03-01T16:05:28.624Z,9.10
2023-03-01T16:07:55.108Z,9.05
2023-03-01T16:10:21.902Z,8.38
2023-03-01T16:12:48.734Z,8.90
2023-03-01T16:15:19.175Z,8.88
2023-03-01T16:17:46.171Z,8.50
2023-03-01T16:20:19.673Z,9.27
2023-03-01T16:22:49.710Z,9.05
2023-03-01T16:25:18.800Z,8.88
2023-03-01T16:27:46.807Z,8.80
2023-03-01T16:30:15.498Z,9.05
2023-03-01T16:32:43.976Z,9.00
2023-03-01T16:35:12.342Z,9.05
2023-03-01T16:37:39.276Z,9.60
2023-03-01T16:40:06.639Z,9.25
2023-03-01T16:42:36.160Z,8.32
2023-03-01T16:45:07.138Z,8.80
2023-03-01T16:47:38.025Z,9.05
2023-03-01T16:50:04.659Z,8.90
2023-03-01T16:52:30.983Z,9.02
2023-03-01T16:54:58.085Z,8.30
2023-03-01T16:57:24.751Z,8.95
2023-03-01T16:59:54.515Z,8.85
2023-03-01T17:02:20.916Z,9.20
2023-03-01T17:04:53.852Z,8.48
2023-03-01T17:07:20.380Z,8.20
2023-03-01T17:09:46.792Z,9.02
2023-03-01T17:12:13.946Z,8.73
2023-03-01T17:14:42.140Z,8.13
2023-03-01T17:17:11.978Z,8.77
2023-03-01T17:19:44.205Z,9.23
2023-03-01T17:22:11.916Z,8.63
2023-03-01T17:24:39.588Z,9.52
2023-03-01T17:27:06.796Z,8.88
2023-03-01T17:29:33.484Z,8.90
2023-03-01T17:32:00.160Z,9.50
2023-03-01T17:34:26.762Z,8.45
2023-03-01T17:36:54.202Z,8.35
2023-03-01T17:39:25.587Z,8.75
2023-03-01T17:41:52.759Z,9.02
2023-03-01T17:44:19.122Z,8.40
2023-03-01T17:46:45.523Z,8.52
2023-03-01T17:49:12.208Z,8.60
2023-03-01T17:51:38.701Z,8.80
2023-03-01T17:54:05.584Z,8.90
2023-03-01T17:56:33.771Z,8.85
2023-03-01T17:59:00.599Z,8.85
2023-03-01T18:01:27.051Z,9.90
2023-03-01T18:03:54.229Z,9.23
2023-03-01T18:06:25.621Z,9.13
2023-03-01T18:08:53.420Z,9.38
2023-03-01T18:11:20.043Z,9.93
2023-03-01T18:13:47.743Z,11.27
2023-03-01T18:16:15.526Z,9.52
2023-03-01T18:18:42.243Z,10.40
2023-03-01T18:21:09.064Z,9.88
2023-03-01T18:23:35.878Z,10.32
2023-03-01T18:26:04.861Z,10.18
2023-03-01T18:28:32.499Z,10.48
2023-03-01T18:31:08.765Z,9.60
2023-03-01T18:33:35.452Z,10.02
2023-03-01T18:36:02.263Z,10.27
2023-03-01T18:38:29.325Z,9.95
2023-03-01T18:40:56.276Z,9.18
2023-03-01T18:43:23.676Z,10.30
2023-03-01T18:45:56.628Z,9.63
2023-03-01T18:48:22.985Z,9.10
2023-03-01T18:50:49.613Z,9.40
2023-03-01T18:53:15.941Z,10.15
2023-03-01T18:55:42.309Z,9.32
2023-03-01T18:58:08.717Z,9.20
2023-03-01T19:00:35.106Z,10.27
2023-03-01T19:03:01.553Z,9.23
2023-03-01T19:05:28.673Z,10.40
2023-03-01T19:07:55.102Z,10.05
2023-03-01T19:10:21.464Z,9.68
2023-03-01T19:12:47.805Z,9.00
2023-03-01T19:15:16.222Z,9.68
2023-03-01T19:17:43.756Z,9.77
2023-03-01T19:20:10.934Z,9.80
2023-03-01T19:22:37.285Z,9.43
2023-03-01T19:25:03.791Z,9.82
2023-03-01T19:27:30.132Z,9.50
2023-03-01T19:29:56.532Z,9.80
2023-03-01T19:32:22.932Z,9.40
2023-03-01T19:34:49.380Z,10.95
2023-03-01T19:37:15.728Z,9.93
2023-03-01T19:39:43.235Z,9.77
2023-03-01T19:42:10.146Z,9.98
2023-03-01T19:44:36.509Z,10.30
2023-03-01T19:47:02.871Z,10.27
2023-03-01T19:49:30.048Z,9.82
2023-03-01T19:51:56.387Z,10.60
2023-03-01T19:54:22.927Z,10.30
2023-03-01T19:56:50.066Z,9.88
2023-03-01T19:59:19.148Z,10.85
2023-03-01T20:01:45.574Z,10.18
2023-03-01T20:04:12.857Z,10.23
2023-03-01T20:06:41.418Z,9.55
2023-03-01T20:09:20.433Z,11.02
2023-03-01T20:11:47.653Z,10.02
2023-03-01T20:14:14.084Z,10.35
2023-03-01T20:16:40.510Z,10.73
2023-03-01T20:19:08.281Z,10.57
2023-03-01T20:21:34.822Z,10.52
2023-03-01T20:24:01.244Z,10.60
2023-03-01T20:26:28.522Z,9.77
2023-03-01T20:28:56.927Z,10.75
2023-03-01T20:31:29.155Z,10.98
2023-03-01T20:33:57.242Z,10.88
2023-03-01T20:36:24.347Z,10.52
2023-03-01T20:38:53.030Z,10.05
2023-03-01T20:41:20.071Z,10.82
2023-03-01T20:43:54.601Z,10.15
2023-03-01T20:46:23.641Z,11.00
2023-03-01T20:48:52.927Z,9.85
2023-03-01T20:51:19.882Z,9.50
2023-03-01T20:53:46.305Z,9.85
2023-03-01T20:56:15.135Z,11.52
2023-03-01T20:58:42.337Z,10.73
2023-03-01T21:01:09.493Z,10.55
2023-03-01T21:03:36.329Z,10.43
2023-03-01T21:06:04.136Z,11.10
2023-03-01T21:08:30.741Z,10.13
2023-03-01T21:10:57.720Z,10.20
2023-03-01T21:13:25.256Z,11.25
2023-03-01T21:15:56.412Z,9.57
2023-03-01T21:18:23.288Z,10.27
2023-03-01T21:20:49.678Z,10.80
2023-03-01T21:23:16.030Z,10.23
2023-03-01T21:25:42.393Z,9.80
2023-03-01T21:28:09.054Z,11.10
2023-03-01T21:30:35.390Z,10.85
2023-03-01T21:33:01.745Z,10.93
2023-03-01T21:35:28.103Z,10.82
2023-03-01T21:37:54.587Z,10.20
2023-03-01T21:40:21.096Z,11.25
2023-03-01T21:42:49.463Z,10.43
2023-03-01T21:45:15.790Z,10.55
2023-03-01T21:47:42.157Z,9.82
2023-03-01T21:50:09.397Z,10.77
2023-03-01T21:52:35.731Z,10.85
2023-03-01T21:55:03.024Z,11.50
2023-03-01T21:57:29.432Z,10.85
2023-03-01T21:59:55.812Z,11.43
2023-03-01T22:02:22.140Z,10.93
2023-03-01T22:04:57.104Z,11.23
2023-03-01T22:07:23.505Z,10.95
2023-03-01T22:09:49.884Z,10.88
2023-03-01T22:12:16.221Z,10.15
2023-03-01T22:14:43.788Z,10.90
2023-03-01T22:17:10.176Z,10.35
2023-03-01T22:19:36.628Z,10.32
2023-03-01T22:22:03.056Z,11.27
2023-03-01T22:24:29.388Z,11.15
2023-03-01T22:26:55.871Z,11.15
2023-03-01T22:29:27.496Z,10.63
2023-03-01T22:31:54.503Z,11.15
2023-03-01T22:34:21.452Z,10.95
2023-03-01T22:36:48.286Z,10.35
2023-03-01T22:39:16.315Z,11.10
2023-03-01T22:41:45.538Z,10.65
2023-03-01T22:44:16.926Z,11.23
2023-03-01T22:46:43.900Z,11.65
2023-03-01T22:49:10.320Z,10.50
2023-03-01T22:51:39.010Z,9.65
2023-03-01T22:54:05.792Z,10.68
2023-03-01T22:56:35.016Z,11.35
2023-03-01T22:59:04.491Z,10.70
2023-03-01T23:01:31.371Z,11.07
2023-03-01T23:03:57.776Z,10.43
2023-03-01T23:06:24.820Z,10.32
2023-03-01T23:08:52.974Z,11.63
2023-03-01T23:11:20.528Z,10.10
2023-03-01T23:13:47.110Z,11.15
2023-03-01T23:16:13.834Z,10.70
2023-03-01T23:18:40.665Z,10.65
2023-03-01T23:21:17.434Z,10.68
2023-03-01T23:23:46.304Z,10.43
2023-03-01T23:26:13.054Z,10.63
2023-03-01T23:28:42.300Z,9.68
2023-03-01T23:31:11.001Z,10.48
2023-03-01T23:33:38.300Z,9.73
2023-03-01T23:36:07.334Z,9.98
2023-03-01T23:38:33.756Z,10.57
2023-03-01T23:41:00.182Z,11.00
2023-03-01T23:43:26.570Z,10.82
2023-03-01T23:45:54.010Z,11.05
2023-03-01T23:48:20.549Z,11.73
2023-03-01T23:50:47.024Z,11.32
2023-03-01T23:53:16.289Z,9.90
2023-03-01T23:55:46.689Z,10.82
2023-03-01T23:58:13.182Z,12.35
